Upstream stations:
Downstream station:
SHEF ID: YUKO2 North Canadian River near Yukon,
STATION TYPE:
Regulating: Stage = 11.00, Flow = 3611
STAGE RIV-FLOW WTR-TEMP BAT-LOAD
ft cfs F volt
Ccp-Rev Ccp-Rev Ccp-Rev Ccp-Rev
(US/Central)
04/03 00:00 ---- ---- ---- ----
04/03 01:00 ---- ---- 53.60 ----
04/03 02:00 2.26 179 53.60 12.82
04/03 03:00 2.23 174 53.60 12.80
04/03 04:00 2.22 172 53.60 12.77
04/03 05:00 2.18 165 53.60 12.74
04/03 06:00 2.16 162 53.60 12.73
04/03 07:00 2.13 157 53.60 12.71
04/03 08:00 2.10 152 53.60 12.73
04/03 09:00 2.05 143 53.60 13.68
04/03 10:00 2.02 138 53.60 13.89
04/03 11:00 1.99 134 53.60 13.59
04/03 12:00 1.97 131 53.60 13.49
04/03 13:00 1.96 129 53.60 13.43
04/03 14:00 1.95 127 53.60 13.41
04/03 15:00 1.91 121 53.60 13.36
04/03 16:00 1.91 121 53.60 13.32
04/03 17:00 1.89 118 53.60 13.32
04/03 18:00 1.86 114 53.60 13.32
04/03 19:00 1.85 113 53.60 13.25
04/03 20:00 1.83 110 53.60 13.11
04/03 21:00 1.82 108 53.60 12.99
04/03 22:00 1.81 107 53.60 12.95
04/03 23:00 1.83 110 67.57 12.90